Time;durP1;ratioP1;P1;durP2;ratioP2;P2;SDS_P1;SDS_P2;PMS_P1;PMS_P2;Temp;Humidity;BMP_temperature;BMP_pressure;BME280_temperature;BME280_humidity;BME280_pressure;Samples;Min_cycle;Max_cycle;Signal;HPM_P1;HPM_P2
2021/04/01 00:01:52;;;;;;;48.67;26.60;;;15.20;54.50;;;;;;5027785;28;20037;-67
2021/04/01 00:04:18;;;;;;;43.83;22.58;;;15.20;54.30;;;;;;5027098;28;20117;-67
2021/04/01 00:06:44;;;;;;;43.42;23.48;;;15.20;55.00;;;;;;5026663;28;20112;-66
2021/04/01 00:09:10;;;;;;;43.20;24.55;;;15.10;55.10;;;;;;5027215;28;20033;-66
2021/04/01 00:11:36;;;;;;;42.00;21.90;;;15.10;55.00;;;;;;5028555;28;20186;-67
2021/04/01 00:14:04;;;;;;;43.20;22.23;;;15.10;55.10;;;;;;5027502;28;20040;-66
2021/04/01 00:16:34;;;;;;;39.92;21.48;;;15.20;55.20;;;;;;5027947;28;20036;-67
2021/04/01 00:19:01;;;;;;;43.45;22.65;;;15.10;54.70;;;;;;5028595;28;20045;-68
2021/04/01 00:21:27;;;;;;;42.90;23.13;;;15.20;55.10;;;;;;5025174;28;20565;-66
2021/04/01 00:23:53;;;;;;;45.35;23.67;;;15.20;55.10;;;;;;5022679;28;20057;-66
2021/04/01 00:26:19;;;;;;;40.28;23.23;;;15.10;55.50;;;;;;5027209;28;20099;-66
2021/04/01 00:28:44;;;;;;;48.10;23.60;;;15.10;55.20;;;;;;5027881;28;20029;-66
2021/04/01 00:31:10;;;;;;;44.65;24.02;;;15.10;55.00;;;;;;5027123;28;20479;-67
2021/04/01 00:33:36;;;;;;;41.78;22.83;;;15.10;55.10;;;;;;5027868;28;20055;-67
2021/04/01 00:36:02;;;;;;;40.60;23.13;;;15.10;55.10;;;;;;5028396;28;20499;-66
2021/04/01 00:38:27;;;;;;;44.75;24.55;;;15.10;55.40;;;;;;5009174;28;20486;-66
2021/04/01 00:40:53;;;;;;;46.45;24.33;;;15.10;55.90;;;;;;5025593;28;20025;-66
2021/04/01 00:43:19;;;;;;;44.08;24.88;;;15.00;55.60;;;;;;5028370;28;20034;-67
2021/04/01 00:45:44;;;;;;;49.35;25.77;;;15.00;56.30;;;;;;5027925;28;20076;-65
2021/04/01 00:48:10;;;;;;;43.83;23.85;;;15.00;55.50;;;;;;5027640;28;20391;-66
2021/04/01 00:50:39;;;;;;;48.85;25.80;;;15.00;55.60;;;;;;5009961;28;20324;-66
2021/04/01 00:53:05;;;;;;;44.25;23.98;;;15.00;55.60;;;;;;5027083;28;20100;-67
2021/04/01 00:55:31;;;;;;;44.20;23.88;;;15.00;55.10;;;;;;5027153;28;20125;-66
2021/04/01 00:57:59;;;;;;;47.33;25.20;;;15.00;55.00;;;;;;5026632;28;20471;-66
2021/04/01 01:00:31;;;;;;;42.22;24.02;;;15.00;55.50;;;;;;5026768;28;20434;-67
2021/04/01 01:02:57;;;;;;;44.10;23.58;;;15.00;55.70;;;;;;5027162;28;20069;-66
2021/04/01 01:05:24;;;;;;;43.42;23.33;;;15.00;55.90;;;;;;5028390;28;20179;-66
2021/04/01 01:07:51;;;;;;;40.00;22.40;;;15.00;56.20;;;;;;5028066;28;20071;-66
2021/04/01 01:10:20;;;;;;;44.33;25.27;;;15.00;56.40;;;;;;5027727;28;20033;-66
2021/04/01 01:12:46;;;;;;;48.30;25.73;;;15.00;56.40;;;;;;5027007;28;20057;-66
2021/04/01 01:15:13;;;;;;;50.80;27.23;;;15.00;53.60;;;;;;5026484;28;20060;-67
2021/04/01 01:17:40;;;;;;;49.38;26.85;;;14.90;54.80;;;;;;5027380;28;20056;-66
2021/04/01 01:20:08;;;;;;;49.20;27.30;;;14.90;55.10;;;;;;5028869;28;20402;-66
2021/04/01 01:22:34;;;;;;;49.38;26.02;;;14.90;55.70;;;;;;5012798;28;20487;-67
2021/04/01 01:25:01;;;;;;;54.15;26.88;;;14.90;55.70;;;;;;5030567;28;20739;-67
2021/04/01 01:27:27;;;;;;;52.83;28.45;;;14.90;55.60;;;;;;5029987;28;20041;-67
2021/04/01 01:29:53;;;;;;;55.05;29.33;;;14.90;54.90;;;;;;5029555;28;20035;-66
2021/04/01 01:32:20;;;;;;;48.13;26.23;;;14.80;54.20;;;;;;5030153;28;20037;-66
2021/04/01 01:34:47;;;;;;;59.65;29.63;;;14.90;54.40;;;;;;5030483;28;20041;-66
2021/04/01 01:37:16;;;;;;;50.50;27.90;;;14.90;54.40;;;;;;5029767;28;20031;-66
2021/04/01 01:39:42;;;;;;;53.13;27.35;;;14.80;55.00;;;;;;5029981;28;20025;-65
2021/04/01 01:42:08;;;;;;;49.38;26.95;;;14.90;55.20;;;;;;5029941;28;20104;-66
2021/04/01 01:44:34;;;;;;;48.58;26.92;;;14.80;55.30;;;;;;5030990;28;20018;-66
2021/04/01 01:47:00;;;;;;;50.10;28.20;;;14.80;55.50;;;;;;5028523;28;20364;-67
2021/04/01 01:49:25;;;;;;;52.35;28.00;;;14.80;56.10;;;;;;5012557;28;20087;-68
2021/04/01 01:51:51;;;;;;;51.35;28.98;;;14.80;56.10;;;;;;5029162;28;20402;-67
2021/04/01 01:54:17;;;;;;;51.05;29.00;;;14.80;56.40;;;;;;5030062;28;20037;-67
2021/04/01 01:56:43;;;;;;;52.08;28.02;;;14.80;56.10;;;;;;5030457;28;20064;-67
2021/04/01 01:59:09;;;;;;;52.72;29.10;;;14.70;56.00;;;;;;5030156;28;20064;-66
2021/04/01 02:01:35;;;;;;;51.55;27.83;;;14.70;56.40;;;;;;5033678;28;20033;-67
2021/04/01 02:04:06;;;;;;;53.53;29.33;;;14.70;56.00;;;;;;5029479;28;20030;-67
2021/04/01 02:06:32;;;;;;;56.80;30.63;;;14.70;56.30;;;;;;5030176;28;20379;-67
2021/04/01 02:08:59;;;;;;;51.05;28.52;;;14.70;56.70;;;;;;5030197;28;20388;-67
2021/04/01 02:11:26;;;;;;;50.50;28.63;;;14.70;56.70;;;;;;5030559;28;20032;-69
2021/04/01 02:13:53;;;;;;;50.05;28.23;;;14.60;56.90;;;;;;5029184;28;20048;-67
2021/04/01 02:16:19;;;;;;;51.58;29.83;;;14.60;57.10;;;;;;5029749;28;20071;-67
2021/04/01 02:18:45;;;;;;;48.42;27.95;;;14.60;57.20;;;;;;5030884;28;20444;-67
2021/04/01 02:21:11;;;;;;;55.67;30.27;;;14.60;57.10;;;;;;5027725;28;20026;-67
2021/04/01 02:23:38;;;;;;;56.80;32.38;;;14.60;57.20;;;;;;5028170;28;20029;-66
2021/04/01 02:26:05;;;;;;;57.45;32.42;;;14.50;57.10;;;;;;5027724;28;20506;-67
2021/04/01 02:28:33;;;;;;;57.40;32.00;;;14.60;56.50;;;;;;5026070;28;20057;-67
2021/04/01 02:31:04;;;;;;;56.90;31.63;;;14.60;56.50;;;;;;5027562;28;20034;-67
2021/04/01 02:33:33;;;;;;;61.80;34.58;;;14.50;56.70;;;;;;5028241;28;20037;-67
2021/04/01 02:36:01;;;;;;;60.05;34.28;;;14.50;56.30;;;;;;5029447;28;20502;-67
2021/04/01 02:38:27;;;;;;;58.03;29.88;;;14.50;56.50;;;;;;5028989;28;20037;-67
2021/04/01 02:40:54;;;;;;;55.58;31.35;;;14.50;57.30;;;;;;5027912;28;20033;-67
2021/04/01 02:43:32;;;;;;;55.95;30.55;;;14.50;57.30;;;;;;5028036;28;20033;-67
2021/04/01 02:46:03;;;;;;;59.47;30.92;;;14.50;57.30;;;;;;5029187;28;20037;-67
2021/04/01 02:48:29;;;;;;;57.00;31.25;;;14.50;57.00;;;;;;5028651;28;20042;-66
2021/04/01 02:50:55;;;;;;;53.03;29.75;;;14.50;56.90;;;;;;5028625;28;20034;-66
2021/04/01 02:53:21;;;;;;;56.83;30.70;;;14.50;56.80;;;;;;5028997;28;20021;-66
2021/04/01 02:55:47;;;;;;;56.28;31.17;;;14.50;57.10;;;;;;5029277;28;20085;-67
2021/04/01 02:58:13;;;;;;;57.95;32.20;;;14.50;55.90;;;;;;5029522;28;20431;-66
2021/04/01 03:00:39;;;;;;;60.25;31.95;;;14.50;56.40;;;;;;5025487;28;20091;-67
2021/04/01 03:03:11;;;;;;;65.88;33.70;;;14.50;56.30;;;;;;5029378;28;20029;-66
2021/04/01 03:05:37;;;;;;;54.45;30.30;;;14.50;56.50;;;;;;5029051;28;20044;-67
2021/04/01 03:08:04;;;;;;;57.03;31.10;;;14.50;56.50;;;;;;5028939;28;20021;-66
2021/04/01 03:10:29;;;;;;;53.08;29.83;;;14.50;56.80;;;;;;5028760;28;20025;-67
2021/04/01 03:12:55;;;;;;;57.50;32.70;;;14.50;56.80;;;;;;5029629;28;20041;-67
2021/04/01 03:15:21;;;;;;;63.90;33.53;;;14.50;56.90;;;;;;5029068;28;20441;-67
2021/04/01 03:17:47;;;;;;;58.63;32.28;;;14.40;56.70;;;;;;5027858;28;20108;-67
2021/04/01 03:20:13;;;;;;;60.67;32.38;;;14.40;56.60;;;;;;5032021;28;20044;-67
2021/04/01 03:22:40;;;;;;;62.95;32.90;;;14.50;56.90;;;;;;5027255;28;20041;-67
2021/04/01 03:25:07;;;;;;;57.20;31.90;;;14.40;56.90;;;;;;5027778;28;20047;-66
2021/04/01 03:27:33;;;;;;;64.55;34.38;;;14.40;56.50;;;;;;5028870;28;20491;-67
2021/04/01 03:30:09;;;;;;;62.88;34.25;;;14.40;56.10;;;;;;5028271;28;20423;-67
2021/04/01 03:32:37;;;;;;;61.55;33.65;;;14.40;56.20;;;;;;5027174;28;20032;-67
2021/04/01 03:35:10;;;;;;;61.45;34.13;;;14.40;56.70;;;;;;5029065;28;20021;-66
2021/04/01 03:37:37;;;;;;;66.25;34.08;;;14.40;56.60;;;;;;5028219;28;20535;-67
2021/04/01 03:40:05;;;;;;;60.85;31.85;;;14.40;57.00;;;;;;5028155;28;20029;-67
2021/04/01 03:42:31;;;;;;;67.15;35.42;;;14.30;56.20;;;;;;5028511;28;20116;-67
2021/04/01 03:44:57;;;;;;;64.57;34.65;;;14.30;56.20;;;;;;5028307;28;20137;-67
2021/04/01 03:47:23;;;;;;;62.40;32.42;;;14.30;55.10;;;;;;5022139;28;20029;-66
2021/04/01 03:49:49;;;;;;;60.92;33.33;;;14.20;54.40;;;;;;5026722;28;20030;-67
2021/04/01 03:52:15;;;;;;;64.45;34.63;;;14.20;54.60;;;;;;5028177;28;20034;-66
2021/04/01 03:54:43;;;;;;;61.20;33.03;;;14.20;56.00;;;;;;5026894;28;20108;-66
2021/04/01 03:57:09;;;;;;;58.47;33.10;;;14.20;56.30;;;;;;5028333;28;20614;-67
2021/04/01 03:59:49;;;;;;;58.47;32.72;;;14.20;55.40;;;;;;5027708;28;20061;-67
2021/04/01 04:03:05;;;;;;;65.60;34.33;;;14.10;55.30;;;;;;5026194;28;20117;-67
2021/04/01 04:07:49;;;;;;;67.93;36.30;;;14.00;53.90;;;;;;5025326;28;20076;-66
2021/04/01 04:12:59;;;;;;;66.47;34.92;;;13.90;53.70;;;;;;5027755;28;20048;-67
2021/04/01 04:15:25;;;;;;;65.05;35.08;;;13.90;53.10;;;;;;5028392;28;20034;-67
2021/04/01 04:17:51;;;;;;;61.78;35.08;;;13.90;54.10;;;;;;5027553;28;20021;-67
2021/04/01 04:20:18;;;;;;;70.20;35.78;;;13.80;54.00;;;;;;5028708;28;20045;-67
2021/04/01 04:22:44;;;;;;;64.90;34.35;;;13.80;54.10;;;;;;5025215;28;20398;-67
2021/04/01 04:25:12;;;;;;;68.97;37.00;;;13.80;54.20;;;;;;5028401;28;20479;-67
2021/04/01 04:30:12;;;;;;;68.85;36.25;;;13.70;54.80;;;;;;5027248;28;20017;-67
2021/04/01 04:32:38;;;;;;;69.53;38.17;;;13.70;54.40;;;;;;5027539;28;20509;-66
2021/04/01 04:35:05;;;;;;;67.53;37.42;;;13.70;54.30;;;;;;5028676;28;20037;-67
2021/04/01 04:37:31;;;;;;;68.75;37.85;;;13.70;54.40;;;;;;5026189;28;20039;-66
2021/04/01 04:39:57;;;;;;;73.38;39.63;;;13.70;53.60;;;;;;5027702;28;20037;-67
2021/04/01 04:42:23;;;;;;;73.10;37.53;;;13.60;53.60;;;;;;5027122;28;20080;-67
2021/04/01 04:44:49;;;;;;;67.75;37.10;;;13.60;53.80;;;;;;5027746;28;20046;-66
2021/04/01 04:47:15;;;;;;;73.70;39.33;;;13.60;53.30;;;;;;5027788;28;20091;-66
2021/04/01 04:49:41;;;;;;;72.47;39.10;;;13.60;53.70;;;;;;5028664;28;20041;-66
2021/04/01 04:52:07;;;;;;;69.20;37.75;;;13.60;54.20;;;;;;5029234;28;20076;-67
2021/04/01 04:54:33;;;;;;;74.20;39.88;;;13.50;53.80;;;;;;5027245;28;20092;-67
2021/04/01 04:57:04;;;;;;;72.10;38.58;;;13.60;54.20;;;;;;5030244;28;20108;-67
2021/04/01 04:59:41;;;;;;;63.88;37.47;;;13.60;53.90;;;;;;5031281;28;20037;-66
2021/04/01 05:04:55;;;;;;;67.72;39.42;;;13.50;54.20;;;;;;5031693;28;20034;-68
2021/04/01 05:07:21;;;;;;;73.38;40.75;;;13.50;54.30;;;;;;5029976;28;20616;-67
2021/04/01 05:09:47;;;;;;;78.55;40.38;;;13.40;54.40;;;;;;5030789;28;20037;-67
2021/04/01 05:12:16;;;;;;;75.25;40.17;;;13.40;54.60;;;;;;5029534;28;20044;-67
2021/04/01 05:14:41;;;;;;;76.13;39.65;;;13.40;54.60;;;;;;5053733;22;20254;-74
2021/04/01 05:17:07;;;;;;;70.95;37.80;;;13.40;55.00;;;;;;5014468;28;20386;-75
2021/04/01 05:19:35;;;;;;;74.93;39.05;;;13.40;54.90;;;;;;5032609;28;20059;-75
2021/04/01 05:22:08;;;;;;;80.30;41.45;;;13.40;54.90;;;;;;5033697;28;20025;-73
2021/04/01 05:24:37;;;;;;;74.25;39.30;;;13.30;55.20;;;;;;5025612;28;20398;-75
2021/04/01 05:27:11;;;;;;;66.05;35.72;;;13.30;55.20;;;;;;5025546;28;20087;-74
2021/04/01 05:29:41;;;;;;;79.72;40.40;;;13.30;55.00;;;;;;5023473;28;20391;-72
2021/04/01 05:32:07;;;;;;;82.60;41.45;;;13.30;55.10;;;;;;5032506;28;20029;-74
2021/04/01 05:34:36;;;;;;;76.60;41.58;;;13.30;54.70;;;;;;5026643;28;20029;-75
2021/04/01 05:37:02;;;;;;;78.95;38.97;;;13.30;54.40;;;;;;5031389;28;20099;-73
2021/04/01 05:39:38;;;;;;;81.10;40.65;;;13.30;55.30;;;;;;5032936;28;20026;-74
2021/04/01 05:42:05;;;;;;;71.35;37.80;;;13.30;55.40;;;;;;5015205;28;20025;-75
2021/04/01 05:44:44;;;;;;;70.13;38.35;;;13.30;55.30;;;;;;5006342;28;20032;-74
2021/04/01 06:05:59;;;;;;;83.35;41.47;;;13.30;55.50;;;;;;5027073;28;20025;-76
2021/04/01 06:08:29;;;;;;;78.78;40.63;;;13.30;55.60;;;;;;5034990;28;20144;-77
2021/04/01 06:10:54;;;;;;;83.13;41.47;;;13.30;55.30;;;;;;5029994;28;20025;-78
2021/04/01 06:13:23;;;;;;;85.70;42.15;;;13.30;55.50;;;;;;5031907;28;20088;-74
2021/04/01 06:15:50;;;;;;;82.35;41.80;;;13.30;55.90;;;;;;5030764;28;20399;-78
2021/04/01 06:18:20;;;;;;;82.60;42.55;;;13.30;55.70;;;;;;5031051;28;20531;-76
2021/04/01 06:20:49;;;;;;;85.05;42.45;;;13.30;55.90;;;;;;5028667;28;20032;-76
2021/04/01 06:23:30;;;;;;;81.40;41.55;;;13.30;56.00;;;;;;5027661;28;20097;-75
2021/04/01 06:25:56;;;;;;;82.03;42.45;;;13.30;55.70;;;;;;5014068;28;20061;-75
2021/04/01 06:28:49;;;;;;;90.10;45.03;;;13.20;56.40;;;;;;5013601;28;20027;-75
2021/04/01 06:31:20;;;;;;;85.13;44.03;;;13.20;56.60;;;;;;5027662;28;20111;-77
2021/04/01 06:33:51;;;;;;;87.40;43.53;;;13.10;56.40;;;;;;5027634;28;20029;-71
2021/04/01 06:36:19;;;;;;;88.80;45.17;;;13.10;56.90;;;;;;5029889;28;20021;-75
2021/04/01 06:38:45;;;;;;;84.65;43.85;;;13.10;56.90;;;;;;5027865;28;20028;-77
2021/04/01 06:41:24;;;;;;;86.57;44.13;;;13.00;57.60;;;;;;5033390;28;20033;-73
2021/04/01 06:43:56;;;;;;;84.68;44.97;;;13.00;57.70;;;;;;5032068;28;20084;-76
2021/04/01 06:46:27;;;;;;;94.28;48.03;;;13.00;58.00;;;;;;5030622;28;20037;-76
2021/04/01 06:49:49;;;;;;;95.03;47.35;;;12.90;58.40;;;;;;5030494;28;20037;-77
2021/04/01 06:54:27;;;;;;;84.45;42.47;;;13.00;58.80;;;;;;5031621;28;20047;-77
2021/04/01 07:00:21;;;;;;;97.55;46.17;;;12.90;58.60;;;;;;5014366;28;20049;-75
2021/04/01 07:06:10;;;;;;;92.97;44.10;;;12.90;58.70;;;;;;5027904;28;20040;-78
2021/04/01 07:11:36;;;;;;;95.10;47.60;;;12.80;59.50;;;;;;5029754;28;20514;-73
2021/04/01 07:14:09;;;;;;;92.90;45.42;;;12.80;60.20;;;;;;5029877;28;20675;-74
2021/04/01 07:16:55;;;;;;;90.85;46.03;;;12.80;60.30;;;;;;5030787;28;20481;-73
2021/04/01 07:19:36;;;;;;;93.40;46.88;;;12.80;60.40;;;;;;5032789;28;20083;-73
2021/04/01 07:44:53;;;;;;;103.82;51.00;;;12.80;62.30;;;;;;5024943;28;20043;-74
2021/04/01 07:47:22;;;;;;;92.68;47.33;;;12.80;62.50;;;;;;5025191;28;20098;-71
2021/04/01 07:49:52;;;;;;;94.85;49.35;;;12.90;62.70;;;;;;5028762;28;20364;-72
2021/04/01 07:52:25;;;;;;;90.65;46.67;;;12.90;63.00;;;;;;5026565;28;20040;-73
2021/04/01 07:58:14;;;;;;;80.47;43.63;;;13.00;63.50;;;;;;4928067;29;20907;-74
2021/04/01 08:01:00;;;;;;;82.78;44.40;;;13.00;63.70;;;;;;5019709;28;20061;-73
2021/04/01 08:06:21;;;;;;;91.22;47.08;;;13.10;64.70;;;;;;5027507;28;20101;-74
2021/04/01 08:08:52;;;;;;;86.80;46.08;;;13.10;65.20;;;;;;5030030;28;20041;-74
2021/04/01 08:11:35;;;;;;;73.38;37.17;;;13.10;65.20;;;;;;5028031;28;20541;-73
2021/04/01 08:14:14;;;;;;;67.95;34.25;;;13.10;66.20;;;;;;5009494;28;20522;-74
2021/04/01 08:16:49;;;;;;;57.90;30.48;;;13.10;65.90;;;;;;5026712;28;20073;-73
2021/04/01 08:19:19;;;;;;;64.65;32.05;;;13.00;65.50;;;;;;5026760;28;20021;-75
2021/04/01 08:21:48;;;;;;;61.72;32.88;;;12.90;65.30;;;;;;5010586;28;20025;-73
2021/04/01 08:24:21;;;;;;;65.60;33.30;;;12.90;65.80;;;;;;5028369;28;20113;-71
2021/04/01 08:27:10;;;;;;;63.90;33.97;;;12.90;66.10;;;;;;5023194;28;20064;-71
2021/04/01 08:35:01;;;;;;;48.20;26.85;;;13.00;65.90;;;;;;5030132;28;20017;-75
2021/04/01 08:37:35;;;;;;;47.08;26.02;;;12.90;65.20;;;;;;5013281;28;20034;-74
2021/04/01 08:40:02;;;;;;;52.03;27.33;;;13.00;65.30;;;;;;5030179;28;20046;-74
2021/04/01 08:42:42;;;;;;;45.80;26.42;;;12.90;65.20;;;;;;5032304;28;20479;-72
2021/04/01 08:45:32;;;;;;;49.08;26.15;;;12.90;65.40;;;;;;5011490;28;20491;-75
2021/04/01 08:47:58;;;;;;;47.33;25.10;;;12.90;65.80;;;;;;5013480;28;20037;-74
2021/04/01 08:50:33;;;;;;;49.00;27.15;;;12.90;66.00;;;;;;5012399;28;20044;-74
2021/04/01 08:53:23;;;;;;;46.25;25.60;;;12.90;66.20;;;;;;5030077;28;20037;-74
2021/04/01 08:56:00;;;;;;;38.60;21.85;;;12.90;66.40;;;;;;5029871;28;20030;-74
2021/04/01 08:58:41;;;;;;;40.00;20.48;;;12.90;66.40;;;;;;5031033;28;20032;-74
2021/04/01 09:01:19;;;;;;;38.58;20.25;;;12.90;66.70;;;;;;5022445;28;20113;-75
2021/04/01 09:03:51;;;;;;;36.70;20.85;;;12.90;66.90;;;;;;5029380;28;20029;-74
2021/04/01 09:06:20;;;;;;;36.90;20.42;;;12.90;67.40;;;;;;5030855;28;20032;-75
2021/04/01 09:09:00;;;;;;;34.78;18.70;;;12.90;67.40;;;;;;5034323;28;20048;-75
2021/04/01 09:11:36;;;;;;;32.13;17.63;;;12.90;68.50;;;;;;5034408;28;20096;-73
2021/04/01 09:14:15;;;;;;;32.53;17.77;;;13.00;68.10;;;;;;5027279;28;20117;-72
2021/04/01 09:16:47;;;;;;;29.98;16.50;;;12.90;68.50;;;;;;5030876;28;20192;-74
2021/04/01 09:19:14;;;;;;;28.33;16.65;;;12.90;68.30;;;;;;5029000;28;20041;-75
2021/04/01 09:21:42;;;;;;;28.88;16.42;;;12.90;68.50;;;;;;5031065;28;20048;-75
2021/04/01 09:24:11;;;;;;;29.58;16.38;;;12.90;68.90;;;;;;5014101;28;20203;-76
2021/04/01 09:26:48;;;;;;;33.58;17.55;;;12.90;69.10;;;;;;5031184;28;20692;-73
2021/04/01 09:29:15;;;;;;;31.63;18.00;;;12.90;69.40;;;;;;5026959;28;20033;-74
2021/04/01 09:31:47;;;;;;;29.48;16.27;;;12.90;69.40;;;;;;5010695;28;20021;-76
2021/04/01 09:34:17;;;;;;;29.85;16.95;;;13.00;69.20;;;;;;5030942;28;20026;-74
2021/04/01 09:36:45;;;;;;;26.80;15.55;;;13.00;69.20;;;;;;5028276;28;20036;-74
2021/04/01 09:39:26;;;;;;;31.27;15.75;;;13.20;69.20;;;;;;5031285;28;20075;-72
2021/04/01 09:42:03;;;;;;;25.60;14.32;;;13.20;69.00;;;;;;5031900;28;20030;-73
2021/04/01 09:44:29;;;;;;;26.98;14.60;;;13.30;69.00;;;;;;5028350;28;20385;-71
2021/04/01 09:47:15;;;;;;;25.20;13.55;;;13.40;68.80;;;;;;5028563;28;20072;-73
2021/04/01 09:49:53;;;;;;;27.48;14.07;;;13.40;68.70;;;;;;5030557;28;20437;-70
2021/04/01 09:52:25;;;;;;;22.27;12.40;;;13.60;68.40;;;;;;5031077;28;20030;-74
2021/04/01 09:54:58;;;;;;;22.00;11.27;;;13.70;67.80;;;;;;5031440;28;20052;-74
2021/04/01 09:57:37;;;;;;;17.65;9.55;;;13.70;67.30;;;;;;5029042;28;20049;-74
2021/04/01 10:00:16;;;;;;;19.00;10.00;;;13.80;67.30;;;;;;5027436;28;20561;-74
2021/04/01 10:02:58;;;;;;;20.05;9.55;;;13.80;67.20;;;;;;5009461;28;20079;-75
2021/04/01 10:05:25;;;;;;;17.45;9.45;;;13.80;67.20;;;;;;5008344;28;20037;-76
2021/04/01 10:07:58;;;;;;;16.70;9.27;;;13.70;67.20;;;;;;5029011;28;20510;-75
2021/04/01 10:10:42;;;;;;;17.10;7.72;;;13.60;67.80;;;;;;5029370;28;20037;-74
2021/04/01 10:13:19;;;;;;;16.10;6.90;;;13.60;67.30;;;;;;5012510;28;20048;-75
2021/04/01 10:15:45;;;;;;;13.55;5.50;;;13.50;68.20;;;;;;5029218;28;20025;-73
2021/04/01 10:18:15;;;;;;;10.82;4.88;;;13.30;68.90;;;;;;5031145;28;20109;-75
2021/04/01 10:20:49;;;;;;;12.48;5.18;;;13.20;69.00;;;;;;5030766;28;20029;-73
2021/04/01 10:23:16;;;;;;;15.13;5.45;;;13.00;69.40;;;;;;5025921;28;20391;-74
2021/04/01 10:26:03;;;;;;;12.57;4.82;;;12.90;69.80;;;;;;5029274;28;20033;-74
2021/04/01 10:28:41;;;;;;;11.52;5.20;;;12.90;69.90;;;;;;5022181;28;20022;-74
2021/04/01 10:31:11;;;;;;;10.90;5.07;;;12.70;70.20;;;;;;5027090;28;20104;-76
2021/04/01 10:33:48;;;;;;;10.48;4.78;;;12.80;70.50;;;;;;5029570;28;20025;-75
2021/04/01 10:36:14;;;;;;;12.95;4.60;;;12.70;70.30;;;;;;5031190;28;20356;-79
2021/04/01 10:38:42;;;;;;;9.55;5.30;;;12.70;70.20;;;;;;4997068;28;20052;-77
2021/04/01 10:41:18;;;;;;;12.65;5.10;;;12.60;70.50;;;;;;5014086;28;20031;-76
2021/04/01 10:43:44;;;;;;;11.00;5.35;;;12.50;71.10;;;;;;5030064;28;20038;-78
2021/04/01 10:46:18;;;;;;;8.63;5.00;;;12.40;71.50;;;;;;5028549;28;20036;-74
2021/04/01 10:48:53;;;;;;;10.30;5.15;;;12.40;72.00;;;;;;5028132;28;20029;-75
2021/04/01 10:51:22;;;;;;;10.73;5.22;;;12.30;72.20;;;;;;5009518;28;20493;-71
2021/04/01 10:53:48;;;;;;;10.10;4.78;;;12.20;72.40;;;;;;5026193;28;20069;-71
2021/04/01 10:56:15;;;;;;;12.27;5.00;;;12.10;72.60;;;;;;5026368;28;20064;-68
2021/04/01 10:58:59;;;;;;;9.63;4.55;;;12.10;72.30;;;;;;5027011;28;20062;-71
2021/04/01 11:01:37;;;;;;;8.63;4.43;;;12.00;72.50;;;;;;5030265;28;20030;-71
2021/04/01 11:04:05;;;;;;;7.55;4.03;;;12.00;72.90;;;;;;5029064;28;20084;-71
2021/04/01 11:06:33;;;;;;;8.23;4.20;;;11.90;72.80;;;;;;5029572;28;20036;-77
2021/04/01 11:08:59;;;;;;;8.35;4.45;;;11.90;72.90;;;;;;5017409;28;20045;-75
2021/04/01 11:12:21;;;;;;;8.27;4.05;;;11.80;73.10;;;;;;5028454;28;20018;-78
2021/04/01 11:14:26;;;;;;;7.95;3.72;;;11.70;73.90;;;;;;5028951;23;20457;-66
2021/04/01 11:16:52;;;;;;;10.02;4.18;;;11.50;73.70;;;;;;5028340;28;20030;-68
2021/04/01 11:19:20;;;;;;;6.85;3.60;;;11.50;73.90;;;;;;5029701;28;20037;-67
2021/04/01 11:21:48;;;;;;;6.57;3.60;;;11.60;73.80;;;;;;5030862;28;20532;-67
2021/04/01 11:24:14;;;;;;;6.93;3.90;;;11.70;73.30;;;;;;5029075;28;20025;-67
2021/04/01 11:26:40;;;;;;;5.13;3.13;;;11.90;73.20;;;;;;5030138;28;20044;-73
2021/04/01 11:29:16;;;;;;;6.72;3.20;;;12.00;72.60;;;;;;5029089;28;20068;-68
2021/04/01 11:31:42;;;;;;;4.68;3.05;;;12.10;71.80;;;;;;5028263;28;20512;-67
2021/04/01 11:34:09;;;;;;;3.95;2.60;;;12.20;71.00;;;;;;5026280;28;20041;-67
2021/04/01 11:36:40;;;;;;;6.88;3.60;;;12.20;70.70;;;;;;5026492;28;20120;-68
2021/04/01 11:39:23;;;;;;;6.82;2.80;;;12.50;70.30;;;;;;5027269;28;20607;-68
2021/04/01 11:41:49;;;;;;;3.75;2.47;;;12.90;69.00;;;;;;5029164;28;20103;-69
2021/04/01 11:44:18;;;;;;;5.07;2.55;;;13.40;67.20;;;;;;5026776;28;20032;-67
2021/04/01 11:46:44;;;;;;;4.95;2.75;;;13.60;66.00;;;;;;5026272;28;20040;-68
2021/04/01 11:49:10;;;;;;;4.65;2.63;;;13.50;65.80;;;;;;5027334;28;20029;-69
2021/04/01 11:51:36;;;;;;;5.38;2.30;;;13.30;65.80;;;;;;5028909;28;20520;-68
2021/04/01 11:54:08;;;;;;;5.45;2.83;;;13.20;64.80;;;;;;5028930;28;20115;-68
2021/04/01 11:56:42;;;;;;;3.88;2.15;;;13.00;64.70;;;;;;5024284;28;20028;-67
2021/04/01 11:59:14;;;;;;;4.43;2.45;;;13.10;64.70;;;;;;5028402;28;20067;-68
2021/04/01 12:02:07;;;;;;;4.95;2.50;;;13.30;64.50;;;;;;5024464;28;20040;-68
2021/04/01 12:04:35;;;;;;;3.63;2.33;;;13.80;64.10;;;;;;5010682;28;20026;-68
2021/04/01 12:07:04;;;;;;;4.70;2.30;;;14.00;63.00;;;;;;5010402;28;20144;-68
2021/04/01 12:09:30;;;;;;;5.13;3.25;;;14.10;62.20;;;;;;5025595;28;20825;-68
2021/04/01 12:11:56;;;;;;;5.07;3.30;;;14.20;61.70;;;;;;5026863;28;20030;-70
2021/04/01 12:14:36;;;;;;;5.50;3.00;;;14.00;61.40;;;;;;5028354;28;20494;-69
2021/04/01 12:17:03;;;;;;;4.80;2.80;;;13.80;62.30;;;;;;5030124;28;20487;-69
2021/04/01 12:19:30;;;;;;;5.32;3.00;;;13.50;63.00;;;;;;5027364;28;20268;-69
2021/04/01 12:21:55;;;;;;;3.53;2.42;;;13.30;64.30;;;;;;5029703;28;20038;-69
2021/04/01 12:24:21;;;;;;;4.25;2.83;;;13.50;64.10;;;;;;5027533;28;20044;-69
2021/04/01 12:26:53;;;;;;;4.45;2.53;;;13.80;63.10;;;;;;5028878;28;20406;-69
2021/04/01 12:29:19;;;;;;;3.63;2.55;;;13.90;62.10;;;;;;5028007;28;20111;-69
2021/04/01 12:31:48;;;;;;;9.80;3.80;;;13.80;62.40;;;;;;5028646;28;20034;-69
2021/04/01 12:34:30;;;;;;;7.05;3.17;;;13.90;64.20;;;;;;5027498;28;20022;-69
2021/04/01 12:37:03;;;;;;;4.97;2.67;;;14.40;62.80;;;;;;5025413;28;20036;-69
2021/04/01 12:39:33;;;;;;;4.32;2.22;;;14.50;61.80;;;;;;5026353;28;20507;-69
2021/04/01 12:42:00;;;;;;;3.53;2.05;;;14.40;60.30;;;;;;5028961;28;20033;-69
2021/04/01 12:44:36;;;;;;;3.13;1.83;;;14.20;59.50;;;;;;5029475;28;20436;-69
2021/04/01 12:47:03;;;;;;;3.97;1.65;;;14.10;59.30;;;;;;5025263;28;20117;-69
2021/04/01 12:49:36;;;;;;;3.15;1.60;;;13.80;59.00;;;;;;5030465;28;20068;-69
2021/04/01 12:52:03;;;;;;;2.67;1.63;;;13.60;60.20;;;;;;5026229;28;20026;-68
2021/04/01 12:54:36;;;;;;;2.72;1.38;;;13.40;60.90;;;;;;5024684;28;20021;-68
2021/04/01 12:57:07;;;;;;;3.58;1.90;;;13.30;61.60;;;;;;5024828;28;20036;-68
2021/04/01 12:59:38;;;;;;;2.25;1.83;;;13.20;62.40;;;;;;5028497;28;20379;-69
2021/04/01 13:02:14;;;;;;;4.30;1.48;;;12.90;63.30;;;;;;5028586;28;20033;-69
2021/04/01 13:04:42;;;;;;;5.40;1.65;;;12.70;64.40;;;;;;5027966;28;20502;-71
2021/04/01 13:09:50;;;;;;;2.40;1.52;;;12.60;64.80;;;;;;5026821;28;20029;-69
2021/04/01 13:12:18;;;;;;;3.92;1.35;;;12.50;64.90;;;;;;5028731;28;20029;-68
2021/04/01 13:14:46;;;;;;;1.75;1.30;;;12.70;64.30;;;;;;5023175;28;20332;-69
2021/04/01 13:17:13;;;;;;;2.08;1.63;;;12.50;64.80;;;;;;5025964;28;20025;-69
2021/04/01 13:19:40;;;;;;;41.10;28.10;;;12.50;65.00;;;;;;5024906;28;20040;-70
2021/04/01 13:22:09;;;;;;;75.05;42.83;;;12.40;65.40;;;;;;5028627;28;20112;-68
2021/04/01 13:27:02;;;;;;;9.77;5.05;;;12.10;66.00;;;;;;5029469;28;20044;-68
2021/04/01 13:29:33;;;;;;;5.22;2.72;;;12.00;66.60;;;;;;5014434;28;20030;-67
2021/04/01 13:32:05;;;;;;;2.20;1.48;;;11.80;66.50;;;;;;5029644;28;20523;-67
2021/04/01 13:40:14;;;;;;;2.40;1.60;;;11.50;67.40;;;;;;5031122;28;20056;-66
2021/04/01 13:42:44;;;;;;;3.78;1.20;;;11.40;67.60;;;;;;5030483;28;20443;-67
2021/04/01 13:45:13;;;;;;;1.88;1.17;;;11.40;66.50;;;;;;5026472;28;21178;-66
2021/04/01 13:47:49;;;;;;;3.30;1.30;;;11.20;66.50;;;;;;5021498;28;20037;-67
2021/04/01 13:50:18;;;;;;;2.65;1.00;;;11.10;66.40;;;;;;5026853;28;20033;-66
2021/04/01 13:55:20;;;;;;;4.28;1.10;;;11.10;65.80;;;;;;5031253;28;20021;-66
2021/04/01 14:03:55;;;;;;;3.55;1.30;;;10.90;65.90;;;;;;5030346;28;20116;-66
2021/04/01 14:11:37;;;;;;;2.00;1.02;;;10.90;65.70;;;;;;5030331;28;20029;-65
2021/04/01 14:14:07;;;;;;;2.53;1.15;;;10.80;65.90;;;;;;5029984;28;20083;-66
2021/04/01 14:16:35;;;;;;;2.20;0.85;;;10.80;66.00;;;;;;5030445;28;20087;-66
2021/04/01 14:19:01;;;;;;;4.50;1.38;;;10.90;66.40;;;;;;5024433;28;20030;-66
2021/04/01 14:21:27;;;;;;;3.55;1.17;;;10.90;66.30;;;;;;5029664;28;20217;-66
2021/04/01 14:23:53;;;;;;;4.45;1.08;;;10.90;66.10;;;;;;5033481;28;20484;-66
2021/04/01 14:26:26;;;;;;;2.15;1.30;;;10.90;66.20;;;;;;5024515;28;20529;-65
2021/04/01 14:28:53;;;;;;;2.47;1.20;;;11.00;66.60;;;;;;5026849;28;20033;-66